Rio Cuarto, Argentina

9:20 PM ART on September 01, 2014 (GMT -0300)
Area De Material | Change Station
CLOSE
Current Station
Airport
Location: Rio Cuarto,
Elevation: 1381 ft
Nearby Weather Stations

Elev 1381 ft 33.12 °S, 64.23 °W | Updated 20 minutes ago

Clear
Clear
68 °F
Feels Like 68 °F
N
15
Wind Variable Wind from North

Today
High -- | Low -- °F
--% Chance of Precip.
Yesterday
High -- | Low -- °F
Precip. -- in
7:34 AM 6:59 PM
Waxing Crescent, 45% visible
Pressure 29.68 in
Visibility -9999.0 miles
Clouds
Dew Point 57 °F
Humidity 68%
Rainfall 0.00 in
Snow Depth Not available.
UV Not available.
Pollen Not available.
Air Quality Not available.
Flu Activity Not available.
METAR SAOC 020000Z 36013KT CAVOK 20/14 Q1005

More Conditions Fewer Conditions

Pressure 29.68 in
Visibility -9999.0 miles
Clouds
Dew Point 57 °F
Humidity 68%
Rainfall 0.00 in
Snow Depth Not available.
UV Not available.
Pollen Not available.
Air Quality Not available.
Flu Activity Not available.
METAR SAOC 020000Z 36013KT CAVOK 20/14 Q1005

More Conditions Fewer Conditions

10-Day Weather Forecast

Almanac

Astronomy

Sep. 01, 2014 Rise Set
Actual Time 7:34 AM ART 6:59 PM ART
Civil Twilight 7:09 AM ART 7:24 PM ART
Nautical Twilight 6:40 AM ART 7:53 PM ART
Astronomical Twilight 6:12 AM ART 8:21 PM ART
Moon 11:38 AM ART (9/1) 12:41 AM ART (9/1)
Length of Visible Light 12h 14m
Length of Day
11h 25m
Tomorrow will be 1m 56s longer.
Waxing Crescent, 45% of the Moon is Illuminated
Today
Waxing Crescent
Sep 2
First Quarter
Sep 8
Full
Sep 15
Last Quarter
Sep 24
New

Today's Extremes

Country Highs Country Lows

Community

WunderPhotos

Upload Photos

1,749,461 photos uploaded!

Nearby

Snow Depth

Not available.

Earthquake Activity

City Distance Mag. Time & Date
No recent earthquake activity has been reported nearby.
Minimum magnitude displayed is 2.5.

Coastal Water Temperatures

Place Temperature
No Stations Reporting

Nearby Weather Stations